Time;durP1;ratioP1;P1;durP2;ratioP2;P2;SDS_P1;SDS_P2;PMS_P1;PMS_P2;Temp;Humidity;BMP_temperature;BMP_pressure;BME280_temperature;BME280_humidity;BME280_pressure;Samples;Min_cycle;Max_cycle;Signal;HPM_P1;HPM_P2
2023/11/27 00:00:15;;;;;;;20.67;5.40;;;6.10;96.40;;;;;;4967491;29;20499;-51
2023/11/27 00:02:41;;;;;;;24.48;5.18;;;6.10;96.40;;;;;;4968811;29;20035;-51
2023/11/27 00:05:07;;;;;;;25.73;6.15;;;6.10;96.40;;;;;;4967094;29;20086;-51
2023/11/27 00:07:32;;;;;;;18.75;6.07;;;6.10;96.40;;;;;;4951162;28;20065;-51
2023/11/27 00:09:58;;;;;;;21.95;5.25;;;6.10;96.40;;;;;;4968336;28;20498;-51
2023/11/27 00:12:23;;;;;;;17.83;5.05;;;6.00;96.40;;;;;;4967081;28;20031;-51
2023/11/27 00:14:49;;;;;;;19.35;5.60;;;6.00;96.50;;;;;;4967137;28;20031;-51
2023/11/27 00:17:14;;;;;;;22.48;6.25;;;6.10;96.50;;;;;;4966929;28;20475;-51
2023/11/27 00:19:40;;;;;;;18.08;4.75;;;6.00;96.50;;;;;;4966953;28;20031;-52
2023/11/27 00:22:05;;;;;;;20.17;4.97;;;6.00;96.50;;;;;;4950842;29;20038;-51
2023/11/27 00:24:31;;;;;;;23.15;5.30;;;6.00;96.50;;;;;;4966702;29;20034;-51
2023/11/27 00:26:56;;;;;;;18.33;5.35;;;6.00;96.50;;;;;;4966812;28;20084;-51
2023/11/27 00:29:22;;;;;;;23.45;5.40;;;6.00;96.50;;;;;;4966696;28;20479;-51
2023/11/27 00:31:48;;;;;;;22.88;5.90;;;6.00;96.50;;;;;;4966728;28;20043;-51
2023/11/27 00:34:13;;;;;;;20.77;5.88;;;6.00;96.50;;;;;;4966779;28;20037;-51
2023/11/27 00:36:39;;;;;;;18.08;5.07;;;6.00;96.50;;;;;;4966691;29;20392;-51
2023/11/27 00:39:08;;;;;;;16.08;4.63;;;6.00;96.50;;;;;;4967433;29;20034;-51
2023/11/27 00:41:34;;;;;;;14.18;4.80;;;6.00;96.50;;;;;;4951298;29;20082;-52
2023/11/27 00:44:00;;;;;;;23.55;5.72;;;6.00;96.50;;;;;;4966688;29;20043;-51
2023/11/27 00:46:26;;;;;;;17.33;5.32;;;6.00;96.60;;;;;;4967726;28;20027;-51
2023/11/27 00:48:52;;;;;;;17.00;4.93;;;6.00;96.60;;;;;;4966522;28;20037;-52
2023/11/27 00:51:17;;;;;;;17.60;4.82;;;5.90;96.60;;;;;;4966554;28;20042;-51
2023/11/27 00:53:43;;;;;;;18.08;4.82;;;5.90;96.60;;;;;;4970657;29;20035;-51
2023/11/27 00:56:09;;;;;;;13.82;4.53;;;5.90;96.60;;;;;;4971790;28;20070;-51
2023/11/27 00:58:35;;;;;;;16.50;5.22;;;5.90;96.60;;;;;;4970549;28;20476;-51
2023/11/27 01:01:01;;;;;;;12.65;4.32;;;5.90;96.60;;;;;;4954661;29;20035;-51
2023/11/27 01:03:27;;;;;;;17.48;4.53;;;6.00;96.60;;;;;;4954591;29;20122;-52
2023/11/27 01:05:53;;;;;;;18.58;5.32;;;5.90;96.60;;;;;;4971575;28;20035;-51
2023/11/27 01:08:19;;;;;;;18.08;4.70;;;5.90;96.60;;;;;;4970305;28;20035;-51
2023/11/27 01:10:44;;;;;;;12.50;4.10;;;5.90;96.60;;;;;;4971550;28;20028;-51
2023/11/27 01:13:10;;;;;;;16.63;5.30;;;5.90;96.70;;;;;;4970386;29;20089;-51
2023/11/27 01:15:36;;;;;;;21.08;4.63;;;5.90;97.00;;;;;;4970290;28;20460;-51
2023/11/27 01:18:01;;;;;;;15.13;4.90;;;5.90;96.70;;;;;;4970334;28;20035;-51
2023/11/27 01:20:27;;;;;;;14.65;4.25;;;5.90;96.70;;;;;;4969936;29;20500;-51
2023/11/27 01:22:53;;;;;;;15.70;4.95;;;5.90;96.70;;;;;;4970302;29;20031;-52
2023/11/27 01:25:19;;;;;;;8.75;4.35;;;5.90;96.70;;;;;;4970075;29;20027;-51
2023/11/27 01:27:45;;;;;;;16.23;4.78;;;5.90;96.70;;;;;;4971134;28;20115;-51
2023/11/27 01:30:11;;;;;;;15.05;3.80;;;5.90;96.70;;;;;;4971202;28;20085;-51
2023/11/27 01:32:37;;;;;;;12.52;4.35;;;5.90;96.70;;;;;;4954261;28;20154;-51
2023/11/27 01:35:03;;;;;;;17.05;4.72;;;5.90;96.70;;;;;;4971500;28;20028;-51
2023/11/27 01:37:28;;;;;;;13.75;4.15;;;5.90;96.70;;;;;;4971156;28;20376;-51
2023/11/27 01:39:54;;;;;;;11.93;4.53;;;5.80;96.70;;;;;;4970798;28;20031;-51
2023/11/27 01:42:20;;;;;;;15.50;4.75;;;5.90;96.80;;;;;;4970670;29;20104;-51
2023/11/27 01:44:45;;;;;;;12.00;4.43;;;5.80;96.70;;;;;;4970954;28;20026;-51
2023/11/27 01:47:12;;;;;;;14.88;4.65;;;5.80;96.70;;;;;;4970887;29;20051;-51
2023/11/27 01:49:38;;;;;;;11.38;4.88;;;5.80;96.80;;;;;;4953762;29;20050;-52
2023/11/27 01:52:05;;;;;;;11.63;4.03;;;5.80;96.80;;;;;;4937393;29;20095;-52
2023/11/27 01:54:31;;;;;;;13.23;4.30;;;5.80;96.80;;;;;;4953531;28;20025;-51
2023/11/27 01:56:56;;;;;;;12.15;4.07;;;5.80;96.80;;;;;;4937448;29;20071;-51
2023/11/27 01:59:22;;;;;;;10.20;4.45;;;5.80;96.80;;;;;;4953476;29;20042;-51
2023/11/27 02:01:47;;;;;;;13.52;4.28;;;5.80;96.80;;;;;;4969145;28;20043;-51
2023/11/27 02:04:13;;;;;;;11.35;4.38;;;5.80;96.80;;;;;;4968411;28;20122;-51
2023/11/27 02:06:39;;;;;;;9.93;4.00;;;5.80;96.80;;;;;;4953147;29;20038;-51
2023/11/27 02:09:05;;;;;;;11.15;3.95;;;5.80;96.80;;;;;;4970424;28;20045;-51
2023/11/27 02:11:31;;;;;;;16.55;4.53;;;5.80;96.80;;;;;;4937124;29;20091;-52
2023/11/27 02:13:56;;;;;;;9.88;3.90;;;5.80;96.80;;;;;;4970250;29;20039;-51
2023/11/27 02:16:22;;;;;;;10.55;4.43;;;5.70;96.80;;;;;;4969063;28;20027;-51
2023/11/27 02:18:48;;;;;;;9.15;3.95;;;5.80;96.80;;;;;;4970244;28;20038;-51
2023/11/27 02:21:16;;;;;;;12.07;4.63;;;5.80;96.80;;;;;;4970139;28;20027;-51
2023/11/27 02:23:41;;;;;;;14.15;4.32;;;5.70;96.80;;;;;;4969116;28;20178;-51
2023/11/27 02:26:08;;;;;;;9.77;3.80;;;5.70;96.80;;;;;;4970196;29;20044;-51
2023/11/27 02:28:33;;;;;;;10.10;3.90;;;5.70;96.80;;;;;;4968910;29;20050;-51
2023/11/27 02:30:59;;;;;;;9.23;3.78;;;5.70;96.80;;;;;;4968734;29;20035;-51
2023/11/27 02:33:27;;;;;;;8.50;3.72;;;5.70;96.80;;;;;;4952483;28;20526;-51
2023/11/27 02:35:53;;;;;;;10.07;3.65;;;5.70;96.80;;;;;;4968767;28;20087;-51
2023/11/27 02:38:19;;;;;;;8.18;4.00;;;5.70;96.80;;;;;;4968362;29;20075;-51
2023/11/27 02:40:45;;;;;;;7.13;3.22;;;5.70;96.80;;;;;;4936636;29;20028;-52
2023/11/27 02:43:10;;;;;;;13.95;4.40;;;5.70;96.80;;;;;;4969857;28;20395;-51
2023/11/27 02:45:36;;;;;;;10.95;4.03;;;5.70;96.80;;;;;;4968602;28;20042;-51
2023/11/27 02:48:02;;;;;;;8.55;4.25;;;5.70;96.80;;;;;;4968466;28;20027;-52
2023/11/27 02:50:27;;;;;;;8.05;3.55;;;5.70;96.90;;;;;;4952453;29;20039;-51
2023/11/27 02:52:53;;;;;;;12.68;4.05;;;5.60;96.80;;;;;;4968317;28;20033;-51
2023/11/27 02:55:19;;;;;;;8.23;3.75;;;5.70;96.90;;;;;;4936443;29;20035;-51
2023/11/27 02:57:46;;;;;;;9.38;3.75;;;5.60;96.90;;;;;;4952385;29;20436;-51
2023/11/27 03:00:12;;;;;;;7.32;3.28;;;5.60;96.90;;;;;;4952446;29;20043;-50
2023/11/27 03:02:38;;;;;;;11.98;3.63;;;5.60;96.90;;;;;;4968359;29;20480;-51
2023/11/27 03:05:07;;;;;;;8.95;4.10;;;5.60;96.90;;;;;;4968181;28;20023;-51
2023/11/27 03:07:36;;;;;;;11.43;3.80;;;5.60;96.90;;;;;;4969526;28;20039;-51
2023/11/27 03:10:03;;;;;;;6.63;3.88;;;5.60;96.90;;;;;;4937507;29;20055;-61
2023/11/27 03:12:29;;;;;;;13.50;4.20;;;5.60;97.00;;;;;;4952997;29;20043;-61
2023/11/27 03:14:54;;;;;;;7.32;3.50;;;5.60;97.00;;;;;;4967781;28;20034;-61
2023/11/27 03:17:21;;;;;;;9.30;3.60;;;5.50;97.00;;;;;;4969324;28;20035;-62
2023/11/27 03:19:47;;;;;;;10.40;4.15;;;5.60;97.30;;;;;;4967921;28;20037;-61
2023/11/27 03:22:12;;;;;;;11.45;3.92;;;5.60;97.00;;;;;;4967610;28;20047;-61
2023/11/27 03:24:38;;;;;;;8.45;3.70;;;5.50;97.00;;;;;;4967865;29;20030;-61
2023/11/27 03:27:05;;;;;;;12.07;3.80;;;5.50;97.00;;;;;;4967844;29;20038;-61
2023/11/27 03:29:31;;;;;;;7.90;3.42;;;5.50;97.00;;;;;;4969217;28;20031;-62
2023/11/27 03:31:56;;;;;;;9.68;3.83;;;5.50;97.00;;;;;;4967757;29;20039;-61
2023/11/27 03:34:22;;;;;;;9.38;4.10;;;5.60;97.00;;;;;;4967685;28;20099;-61
2023/11/27 03:36:47;;;;;;;6.75;3.28;;;5.60;97.00;;;;;;4967819;28;20035;-61
2023/11/27 03:39:13;;;;;;;11.50;3.60;;;5.50;96.90;;;;;;4951747;28;20376;-61
2023/11/27 03:41:39;;;;;;;9.30;3.60;;;5.50;96.90;;;;;;4935965;29;20039;-61
2023/11/27 03:44:04;;;;;;;9.27;3.22;;;5.50;96.90;;;;;;4969128;28;20033;-61
2023/11/27 03:46:30;;;;;;;6.60;3.30;;;5.50;96.90;;;;;;4951341;29;20031;-61
2023/11/27 03:48:55;;;;;;;12.35;3.47;;;5.50;96.90;;;;;;4967743;29;20038;-61
2023/11/27 03:51:21;;;;;;;7.80;3.22;;;5.50;97.00;;;;;;4951323;28;20027;-60
2023/11/27 03:53:47;;;;;;;7.50;3.40;;;5.50;97.00;;;;;;4968597;29;20038;-61
2023/11/27 03:56:12;;;;;;;7.30;3.70;;;5.50;97.00;;;;;;4967236;28;20051;-61
2023/11/27 03:58:38;;;;;;;8.80;4.22;;;5.50;96.90;;;;;;4967279;29;20074;-61
2023/11/27 04:01:04;;;;;;;7.35;3.70;;;5.50;96.90;;;;;;4967321;28;20042;-61
2023/11/27 04:03:30;;;;;;;6.90;3.35;;;5.50;97.00;;;;;;4967229;28;20027;-61
2023/11/27 04:05:55;;;;;;;7.47;3.53;;;5.50;97.00;;;;;;4968414;28;20032;-61
2023/11/27 04:08:21;;;;;;;9.00;3.25;;;5.50;97.00;;;;;;4967182;29;20038;-61
2023/11/27 04:10:46;;;;;;;7.20;3.53;;;5.40;97.00;;;;;;4968103;29;20057;-61
2023/11/27 04:13:12;;;;;;;4.95;2.90;;;5.40;97.00;;;;;;4968238;28;20053;-61
2023/11/27 04:15:38;;;;;;;10.02;3.72;;;5.40;97.00;;;;;;4966895;28;20480;-61
2023/11/27 04:18:04;;;;;;;7.03;3.50;;;5.40;96.90;;;;;;4967977;28;20027;-61
2023/11/27 04:20:29;;;;;;;8.45;3.53;;;5.40;97.00;;;;;;4966914;28;20035;-61
2023/11/27 04:22:56;;;;;;;9.35;3.25;;;5.40;97.00;;;;;;4950834;29;20028;-61
2023/11/27 04:25:21;;;;;;;5.97;3.33;;;5.40;97.00;;;;;;4968224;28;20023;-61
2023/11/27 04:27:48;;;;;;;4.80;2.85;;;5.40;97.00;;;;;;4966350;28;20140;-61
2023/11/27 04:30:14;;;;;;;6.93;3.03;;;5.40;97.00;;;;;;4951057;29;20081;-61
2023/11/27 04:32:39;;;;;;;5.82;3.20;;;5.40;97.00;;;;;;4934701;28;20070;-61
2023/11/27 04:35:05;;;;;;;7.72;3.20;;;5.40;97.00;;;;;;4968150;28;20035;-61
2023/11/27 04:37:31;;;;;;;9.30;3.25;;;5.40;97.00;;;;;;4966389;28;20054;-61
2023/11/27 04:39:56;;;;;;;5.10;3.22;;;5.40;97.00;;;;;;4967922;28;20046;-61
2023/11/27 04:42:25;;;;;;;7.05;3.58;;;5.40;97.00;;;;;;4967927;29;20032;-62
2023/11/27 04:44:51;;;;;;;7.05;3.17;;;5.40;97.00;;;;;;4966930;29;20049;-61
2023/11/27 04:47:16;;;;;;;8.40;3.40;;;5.40;97.00;;;;;;4966840;28;20027;-61
2023/11/27 04:49:42;;;;;;;11.82;3.50;;;5.40;97.00;;;;;;4966558;29;20055;-61
2023/11/27 04:52:08;;;;;;;7.72;3.20;;;5.40;97.00;;;;;;4950548;29;20039;-61
2023/11/27 04:54:34;;;;;;;6.93;3.35;;;5.40;97.00;;;;;;4966633;28;20055;-62
2023/11/27 04:56:59;;;;;;;6.90;3.85;;;5.40;97.00;;;;;;4967673;28;20031;-61
2023/11/27 04:59:26;;;;;;;6.72;3.28;;;5.40;97.00;;;;;;4966440;29;20035;-61
2023/11/27 05:01:52;;;;;;;7.07;3.05;;;5.40;97.10;;;;;;4967700;28;20039;-62
2023/11/27 05:04:18;;;;;;;8.60;2.88;;;5.40;97.10;;;;;;4966615;29;20091;-61
2023/11/27 05:06:44;;;;;;;7.95;3.47;;;5.40;97.10;;;;;;4966203;29;20042;-62
2023/11/27 05:09:12;;;;;;;4.85;2.70;;;5.40;97.20;;;;;;4966434;28;20106;-61
2023/11/27 05:11:38;;;;;;;4.53;3.10;;;5.30;97.10;;;;;;4966216;28;20036;-61
2023/11/27 05:14:04;;;;;;;5.10;3.30;;;5.40;97.20;;;;;;4966436;29;20031;-61
2023/11/27 05:16:30;;;;;;;5.30;3.17;;;5.40;97.30;;;;;;4950466;29;20030;-61
2023/11/27 05:18:55;;;;;;;4.65;3.03;;;5.40;97.30;;;;;;4950223;28;20099;-60
2023/11/27 05:21:21;;;;;;;4.43;2.60;;;5.30;97.30;;;;;;4966256;28;20499;-60
2023/11/27 05:23:47;;;;;;;8.85;3.38;;;5.40;97.40;;;;;;4967926;28;20028;-61
2023/11/27 05:26:13;;;;;;;6.80;3.53;;;5.40;97.40;;;;;;4950839;29;20028;-60
2023/11/27 05:28:39;;;;;;;5.75;3.03;;;5.40;97.40;;;;;;4950473;29;20042;-61
2023/11/27 05:31:05;;;;;;;6.40;3.42;;;5.40;97.40;;;;;;4966207;28;20023;-60
2023/11/27 05:33:31;;;;;;;7.25;2.97;;;5.40;97.40;;;;;;4967537;28;20062;-61
2023/11/27 05:35:57;;;;;;;4.85;2.92;;;5.40;97.40;;;;;;4967430;29;20063;-61
2023/11/27 05:38:23;;;;;;;8.10;3.17;;;5.40;97.40;;;;;;4965944;28;20388;-61
2023/11/27 05:40:50;;;;;;;7.32;3.17;;;5.40;97.40;;;;;;4969759;29;20118;-59
2023/11/27 05:43:17;;;;;;;10.07;3.33;;;5.40;97.40;;;;;;4969629;28;20090;-61
2023/11/27 05:45:43;;;;;;;6.10;3.05;;;5.40;97.30;;;;;;4969763;28;20038;-60
2023/11/27 05:48:09;;;;;;;6.13;2.60;;;5.40;97.30;;;;;;4971107;28;20123;-61
2023/11/27 05:50:38;;;;;;;8.05;3.10;;;5.40;97.30;;;;;;4971034;28;20035;-62
2023/11/27 05:53:04;;;;;;;6.32;2.47;;;5.40;97.30;;;;;;4968921;28;20095;-60
2023/11/27 05:55:30;;;;;;;7.72;2.75;;;5.40;97.30;;;;;;4970687;28;20471;-61
2023/11/27 05:57:55;;;;;;;7.90;3.50;;;5.40;97.30;;;;;;4985152;28;20038;-60
2023/11/27 06:00:21;;;;;;;4.68;2.83;;;5.40;97.30;;;;;;4985422;28;20538;-61
2023/11/27 06:02:46;;;;;;;7.45;2.60;;;5.40;97.30;;;;;;4985417;28;20027;-61
2023/11/27 06:05:12;;;;;;;4.95;3.22;;;5.40;97.30;;;;;;4970622;28;20031;-61
2023/11/27 06:07:37;;;;;;;6.95;2.75;;;5.40;97.30;;;;;;4970299;29;20099;-60
2023/11/27 06:10:03;;;;;;;8.60;3.33;;;5.40;97.30;;;;;;4970507;29;20038;-61
2023/11/27 06:12:29;;;;;;;6.85;3.10;;;5.40;97.30;;;;;;4985208;28;20064;-61
2023/11/27 06:14:54;;;;;;;5.82;3.00;;;5.40;97.30;;;;;;4985297;28;20031;-61
2023/11/27 06:17:20;;;;;;;5.68;2.97;;;5.40;97.30;;;;;;4985208;28;20046;-60
2023/11/27 06:19:46;;;;;;;9.55;3.30;;;5.40;97.30;;;;;;4970860;28;20476;-61
2023/11/27 06:22:12;;;;;;;6.10;3.08;;;5.40;97.20;;;;;;4985067;28;20027;-61
2023/11/27 06:24:37;;;;;;;4.65;3.22;;;5.40;97.20;;;;;;4968666;29;20029;-61
2023/11/27 06:27:03;;;;;;;9.88;3.15;;;5.40;97.20;;;;;;4970177;28;20031;-61
2023/11/27 06:29:29;;;;;;;9.48;3.60;;;5.40;97.20;;;;;;4968626;29;20031;-61
2023/11/27 06:31:55;;;;;;;10.88;2.97;;;5.40;97.20;;;;;;4984838;28;20035;-61
2023/11/27 06:34:21;;;;;;;6.18;2.88;;;5.40;97.20;;;;;;4969964;28;20038;-61
2023/11/27 06:36:46;;;;;;;8.05;3.22;;;5.40;97.20;;;;;;4968145;28;20036;-59
2023/11/27 06:39:12;;;;;;;7.90;3.10;;;5.40;97.20;;;;;;4966061;28;20163;-61
2023/11/27 06:41:38;;;;;;;6.00;2.58;;;5.40;97.20;;;;;;4966113;28;20054;-61
2023/11/27 06:44:04;;;;;;;9.02;2.85;;;5.40;97.20;;;;;;4950646;29;20020;-61
2023/11/27 06:46:29;;;;;;;7.28;3.22;;;5.40;97.20;;;;;;4972160;28;20019;-61
2023/11/27 06:48:55;;;;;;;8.48;2.80;;;5.40;97.20;;;;;;4982279;28;20023;-61
2023/11/27 06:51:21;;;;;;;9.65;2.63;;;5.40;97.30;;;;;;4984023;28;20030;-61
2023/11/27 06:53:46;;;;;;;5.32;2.97;;;5.40;97.30;;;;;;4984190;28;20046;-61
2023/11/27 06:56:12;;;;;;;5.13;2.67;;;5.40;97.20;;;;;;4968367;29;20139;-61
2023/11/27 06:58:38;;;;;;;6.55;2.97;;;5.40;97.20;;;;;;4968642;28;20047;-62
2023/11/27 07:01:09;;;;;;;5.05;2.63;;;5.40;97.20;;;;;;4966231;29;20480;-61
2023/11/27 07:03:34;;;;;;;7.55;3.13;;;5.40;97.20;;;;;;4969432;28;20090;-61
2023/11/27 07:06:00;;;;;;;10.88;3.05;;;5.40;97.20;;;;;;4969037;28;20550;-61
2023/11/27 07:08:25;;;;;;;4.78;2.78;;;5.40;97.20;;;;;;4983225;28;20039;-61
2023/11/27 07:10:51;;;;;;;5.68;3.03;;;5.40;97.20;;;;;;4965550;28;20027;-61
2023/11/27 07:13:17;;;;;;;3.97;2.85;;;5.40;97.20;;;;;;4963665;28;20032;-61
2023/11/27 07:15:45;;;;;;;6.70;2.60;;;5.40;97.20;;;;;;4963925;29;20062;-58
2023/11/27 07:18:11;;;;;;;6.95;2.80;;;5.40;97.30;;;;;;4963899;28;20032;-61
2023/11/27 07:20:37;;;;;;;9.52;3.30;;;5.40;97.30;;;;;;4961701;28;20043;-61
2023/11/27 07:23:03;;;;;;;6.10;2.45;;;5.40;97.30;;;;;;4967711;29;20032;-61
2023/11/27 07:25:29;;;;;;;8.00;3.33;;;5.40;97.30;;;;;;4966656;29;20054;-61
2023/11/27 07:27:56;;;;;;;6.28;2.90;;;5.40;97.30;;;;;;4982292;28;20031;-61
2023/11/27 07:30:21;;;;;;;5.38;3.13;;;5.40;97.30;;;;;;4967037;28;20070;-61
2023/11/27 07:32:47;;;;;;;3.60;2.70;;;5.40;97.30;;;;;;4981968;28;20035;-61
2023/11/27 07:35:13;;;;;;;8.60;3.33;;;5.40;97.20;;;;;;4983524;28;20027;-61
2023/11/27 07:37:39;;;;;;;16.73;3.72;;;5.40;97.20;;;;;;4968306;29;20043;-61
2023/11/27 07:40:10;;;;;;;12.38;3.80;;;5.40;97.20;;;;;;4982713;28;20072;-61
2023/11/27 07:42:37;;;;;;;12.25;3.50;;;5.40;97.20;;;;;;4983453;28;20027;-61
2023/11/27 07:45:04;;;;;;;17.38;3.38;;;5.40;97.20;;;;;;4985350;28;20026;-61
2023/11/27 07:47:30;;;;;;;14.48;3.50;;;5.40;97.30;;;;;;4987834;28;20027;-61
2023/11/27 07:49:56;;;;;;;12.73;3.38;;;5.50;97.30;;;;;;4967298;28;20031;-61
2023/11/27 07:52:22;;;;;;;12.25;3.45;;;5.40;97.30;;;;;;4970991;28;20062;-61
2023/11/27 07:54:47;;;;;;;11.20;4.22;;;5.50;97.30;;;;;;4972540;28;20038;-61
2023/11/27 07:57:14;;;;;;;15.40;4.68;;;5.50;97.30;;;;;;4958913;29;20043;-61
2023/11/27 07:59:41;;;;;;;13.18;3.47;;;5.50;97.20;;;;;;4968000;28;20395;-61
2023/11/27 08:02:07;;;;;;;13.45;3.70;;;5.50;97.20;;;;;;4964846;28;20038;-61
2023/11/27 08:04:35;;;;;;;11.20;3.47;;;5.50;97.20;;;;;;4970664;28;20035;-61
2023/11/27 08:07:00;;;;;;;9.25;4.13;;;5.50;97.20;;;;;;4973704;28;20436;-62
2023/11/27 08:09:27;;;;;;;13.60;4.00;;;5.50;97.20;;;;;;4966707;28;20039;-60
2023/11/27 08:11:52;;;;;;;9.70;3.13;;;5.50;97.20;;;;;;4965885;28;20059;-61
2023/11/27 08:14:18;;;;;;;12.40;4.00;;;5.50;97.20;;;;;;4944486;29;20035;-61
2023/11/27 08:16:48;;;;;;;15.93;3.95;;;5.50;97.20;;;;;;4967375;28;20066;-60
2023/11/27 08:19:16;;;;;;;28.63;6.05;;;5.60;97.30;;;;;;4968237;28;20479;-61
2023/11/27 08:21:43;;;;;;;29.83;5.57;;;5.60;97.30;;;;;;4954019;28;20036;-61
2023/11/27 08:24:10;;;;;;;33.85;5.60;;;5.60;97.40;;;;;;4983528;28;20029;-61
2023/11/27 08:26:41;;;;;;;27.92;5.25;;;5.60;97.40;;;;;;4969116;28;20101;-61
2023/11/27 08:29:07;;;;;;;43.83;5.85;;;5.60;97.50;;;;;;4947515;29;20030;-61
2023/11/27 08:31:33;;;;;;;17.33;4.78;;;5.60;97.40;;;;;;4975946;28;20044;-61
2023/11/27 08:33:59;;;;;;;26.33;5.75;;;5.60;97.40;;;;;;4979051;28;20092;-61
2023/11/27 08:36:25;;;;;;;31.80;5.45;;;5.70;97.40;;;;;;4955060;28;20055;-61
2023/11/27 08:38:55;;;;;;;22.77;5.55;;;5.60;97.40;;;;;;4980041;28;20035;-61
2023/11/27 08:41:20;;;;;;;40.60;5.05;;;5.70;97.40;;;;;;4962547;29;20020;-61
2023/11/27 08:43:46;;;;;;;35.88;6.22;;;5.70;97.50;;;;;;4949931;29;20051;-61
2023/11/27 08:46:13;;;;;;;47.17;6.78;;;5.60;97.40;;;;;;4974454;28;20024;-61
2023/11/27 08:48:38;;;;;;;28.80;5.65;;;5.70;97.70;;;;;;4962933;29;20051;-61
2023/11/27 08:51:07;;;;;;;41.38;6.00;;;5.70;97.40;;;;;;4963059;29;20380;-62
2023/11/27 08:53:33;;;;;;;39.97;6.07;;;5.80;97.40;;;;;;4947729;29;20118;-61
2023/11/27 08:55:59;;;;;;;37.85;6.28;;;5.80;97.40;;;;;;4965252;29;20034;-61
2023/11/27 08:58:25;;;;;;;44.00;6.55;;;5.80;97.30;;;;;;4966501;28;20043;-61
2023/11/27 09:00:51;;;;;;;66.82;9.63;;;5.80;97.40;;;;;;4984596;28;20030;-62
2023/11/27 09:03:18;;;;;;;26.00;6.53;;;5.80;97.50;;;;;;4966308;28;20027;-61
2023/11/27 09:05:45;;;;;;;46.80;6.90;;;5.90;97.60;;;;;;4981238;28;20028;-62
2023/11/27 09:08:10;;;;;;;57.63;6.63;;;5.90;97.50;;;;;;4949616;29;20056;-61
2023/11/27 09:10:36;;;;;;;29.13;6.60;;;5.90;97.60;;;;;;4966242;28;20035;-61
2023/11/27 09:13:04;;;;;;;38.78;5.93;;;5.90;97.60;;;;;;4979316;28;20032;-61
2023/11/27 09:15:29;;;;;;;38.30;6.22;;;5.90;97.60;;;;;;4982797;28;20031;-62
2023/11/27 09:17:55;;;;;;;39.05;6.28;;;5.90;97.70;;;;;;4985508;28;20031;-61
2023/11/27 09:20:21;;;;;;;42.28;6.15;;;5.90;97.70;;;;;;4980973;28;20027;-61
2023/11/27 09:22:46;;;;;;;44.13;6.50;;;5.90;97.60;;;;;;4981201;28;20083;-61
2023/11/27 09:25:12;;;;;;;40.95;6.30;;;5.90;97.50;;;;;;4965304;29;20023;-62
2023/11/27 09:27:41;;;;;;;49.70;7.13;;;6.00;97.60;;;;;;4985770;28;20046;-62
2023/11/27 09:30:07;;;;;;;42.03;6.45;;;6.00;97.60;;;;;;4985656;28;20028;-62
2023/11/27 09:32:34;;;;;;;38.78;7.88;;;6.00;97.60;;;;;;4983674;28;20039;-61
2023/11/27 09:35:04;;;;;;;30.35;6.72;;;6.00;97.60;;;;;;4983903;28;20169;-62
2023/11/27 09:37:32;;;;;;;87.07;9.98;;;6.00;97.60;;;;;;4963716;28;20106;-62
2023/11/27 09:39:59;;;;;;;50.58;7.60;;;6.10;97.60;;;;;;4985098;28;20049;-52
2023/11/27 09:42:35;;;;;;;43.75;7.75;;;6.10;97.60;;;;;;4984695;28;20035;-51
2023/11/27 09:45:04;;;;;;;47.28;7.65;;;6.10;97.60;;;;;;4979461;28;20033;-52
2023/11/27 09:47:31;;;;;;;53.80;7.45;;;6.10;97.70;;;;;;4974682;28;20034;-51
2023/11/27 09:49:58;;;;;;;48.90;7.55;;;6.20;97.60;;;;;;4966288;28;20043;-52
2023/11/27 09:52:29;;;;;;;33.95;6.45;;;6.20;97.40;;;;;;4969251;28;20027;-52
2023/11/27 09:54:59;;;;;;;46.53;6.80;;;6.20;97.40;;;;;;4967694;29;20033;-51
2023/11/27 09:57:25;;;;;;;59.17;8.13;;;6.30;97.40;;;;;;4983666;28;20054;-52
2023/11/27 09:59:50;;;;;;;48.53;6.88;;;6.30;97.30;;;;;;4962486;29;20038;-51
2023/11/27 10:02:16;;;;;;;42.70;6.57;;;6.30;97.20;;;;;;4958702;29;20035;-51
2023/11/27 10:04:42;;;;;;;50.17;7.93;;;6.30;97.10;;;;;;4972869;28;20070;-51
2023/11/27 10:07:08;;;;;;;42.70;7.97;;;6.30;97.00;;;;;;4969192;28;20035;-52
2023/11/27 10:09:34;;;;;;;55.70;7.55;;;6.40;97.10;;;;;;4973742;28;20147;-52
2023/11/27 10:12:00;;;;;;;39.38;6.75;;;6.40;97.00;;;;;;4971808;28;20042;-51
2023/11/27 10:14:29;;;;;;;37.28;6.28;;;6.40;97.00;;;;;;5004447;28;20031;-51
2023/11/27 10:16:58;;;;;;;45.40;6.78;;;6.40;96.90;;;;;;4974264;28;20031;-51
2023/11/27 10:19:25;;;;;;;40.60;5.65;;;6.50;96.80;;;;;;4989368;28;20050;-51
2023/11/27 10:21:51;;;;;;;37.28;6.25;;;6.50;96.70;;;;;;4979063;28;20430;-52
2023/11/27 10:24:16;;;;;;;31.10;6.55;;;6.50;96.70;;;;;;4972479;28;20042;-52
2023/11/27 10:26:43;;;;;;;29.77;6.57;;;6.50;96.70;;;;;;4996322;28;20094;-51
2023/11/27 10:29:09;;;;;;;52.63;7.55;;;6.50;96.60;;;;;;4987531;28;20040;-51
2023/11/27 10:31:36;;;;;;;58.30;8.52;;;6.60;96.60;;;;;;4971315;28;20118;-51
2023/11/27 10:34:03;;;;;;;48.15;7.78;;;6.60;96.60;;;;;;4966252;29;20057;-52
2023/11/27 10:36:28;;;;;;;397.85;35.70;;;6.60;96.60;;;;;;4966884;28;20115;-51
2023/11/27 10:39:05;;;;;;;70.35;9.30;;;6.60;96.60;;;;;;4978177;28;20035;-51
2023/11/27 10:41:31;;;;;;;76.22;10.23;;;6.60;96.70;;;;;;4965090;28;20028;-52
2023/11/27 10:43:58;;;;;;;59.70;8.73;;;6.70;96.70;;;;;;4968239;29;20042;-51
2023/11/27 10:46:25;;;;;;;67.43;10.13;;;6.70;96.60;;;;;;4984042;28;20480;-52
2023/11/27 10:48:51;;;;;;;82.57;9.73;;;6.70;96.50;;;;;;4976057;28;20091;-51
2023/11/27 10:51:16;;;;;;;67.13;10.88;;;6.80;96.50;;;;;;4978657;28;20027;-52
2023/11/27 10:53:47;;;;;;;74.50;9.30;;;6.80;96.40;;;;;;4983775;28;20035;-51
2023/11/27 10:56:14;;;;;;;73.15;8.85;;;6.80;96.40;;;;;;4980435;28;20069;-52
2023/11/27 10:58:39;;;;;;;91.82;10.68;;;6.90;96.20;;;;;;4981406;28;20149;-52
2023/11/27 11:01:07;;;;;;;64.90;9.43;;;6.90;96.20;;;;;;4968964;28;20027;-52
2023/11/27 11:03:33;;;;;;;66.85;8.05;;;6.90;96.20;;;;;;4980421;28;20031;-52
2023/11/27 11:05:59;;;;;;;60.85;8.52;;;7.00;95.90;;;;;;4979444;28;20118;-51
2023/11/27 11:08:28;;;;;;;50.55;8.75;;;6.90;95.80;;;;;;4981664;28;20023;-52
2023/11/27 11:10:57;;;;;;;58.00;7.72;;;7.00;95.90;;;;;;4987383;28;20027;-52
2023/11/27 11:13:26;;;;;;;68.55;8.55;;;7.00;95.80;;;;;;4996176;28;20058;-52
2023/11/27 11:16:13;;;;;;;75.88;9.90;;;7.00;95.80;;;;;;4958215;28;20055;-52
2023/11/27 11:19:07;;;;;;;69.05;8.95;;;7.00;95.70;;;;;;4973157;28;20043;-52
2023/11/27 11:21:48;;;;;;;74.10;8.88;;;7.10;95.80;;;;;;4968625;28;20046;-52
2023/11/27 11:24:33;;;;;;;52.28;8.57;;;7.10;95.50;;;;;;4982612;28;20039;-52
2023/11/27 11:27:20;;;;;;;56.80;6.43;;;7.10;95.50;;;;;;4959031;28;20027;-52
2023/11/27 11:29:45;;;;;;;56.28;8.73;;;7.10;95.40;;;;;;4961906;29;20064;-52
2023/11/27 11:32:16;;;;;;;60.33;7.85;;;7.10;95.40;;;;;;4981726;28;20035;-52
2023/11/27 11:34:43;;;;;;;79.70;10.52;;;7.20;95.30;;;;;;4981618;28;20054;-52
2023/11/27 11:37:12;;;;;;;46.55;9.27;;;7.20;95.40;;;;;;4974872;28;20043;-52
2023/11/27 11:39:52;;;;;;;69.57;8.82;;;7.20;95.60;;;;;;4979590;28;20058;-52
2023/11/27 11:42:20;;;;;;;60.58;8.90;;;7.30;95.40;;;;;;4961260;29;20148;-52
2023/11/27 11:45:16;;;;;;;198.05;16.83;;;7.30;95.20;;;;;;4964491;28;20023;-52
2023/11/27 11:47:42;;;;;;;54.42;8.10;;;7.30;95.10;;;;;;4983541;28;20036;-52
2023/11/27 11:50:30;;;;;;;61.95;9.60;;;7.40;95.20;;;;;;4964571;28;20093;-52
2023/11/27 11:52:57;;;;;;;115.88;13.63;;;7.40;95.00;;;;;;4973616;28;20035;-52
2023/11/27 11:55:26;;;;;;;84.13;11.02;;;7.40;94.90;;;;;;4951041;29;20042;-52
2023/11/27 11:57:58;;;;;;;195.80;19.92;;;7.40;94.90;;;;;;4952266;28;20032;-52
2023/11/27 12:00:24;;;;;;;106.03;14.20;;;7.50;94.90;;;;;;4970912;28;20032;-52
2023/11/27 12:02:55;;;;;;;155.63;16.95;;;7.50;94.90;;;;;;4979448;28;20376;-52
2023/11/27 12:05:23;;;;;;;98.38;13.07;;;7.50;94.80;;;;;;4976644;28;20081;-52
2023/11/27 12:07:49;;;;;;;102.97;12.45;;;7.50;94.70;;;;;;4981799;28;20034;-52
2023/11/27 12:10:17;;;;;;;74.05;10.50;;;7.50;94.60;;;;;;4949676;29;20031;-52
2023/11/27 12:12:49;;;;;;;89.32;10.25;;;7.50;94.60;;;;;;4963630;28;20040;-52
2023/11/27 12:15:16;;;;;;;85.75;10.50;;;7.50;94.60;;;;;;4975070;28;20484;-50
2023/11/27 12:17:48;;;;;;;65.35;8.07;;;7.50;94.60;;;;;;4956780;29;20130;-51
2023/11/27 12:20:15;;;;;;;78.95;8.35;;;7.50;94.50;;;;;;4966388;28;20028;-52
2023/11/27 12:22:44;;;;;;;54.67;7.00;;;7.60;94.50;;;;;;4975045;28;20059;-52
2023/11/27 12:25:11;;;;;;;41.45;6.85;;;7.60;94.40;;;;;;4961003;28;20019;-52
2023/11/27 12:27:37;;;;;;;46.42;7.28;;;7.60;94.30;;;;;;4986646;28;20030;-52
2023/11/27 12:30:03;;;;;;;66.25;8.18;;;7.60;94.20;;;;;;4974421;28;20035;-52
2023/11/27 12:32:28;;;;;;;49.05;6.07;;;7.60;94.20;;;;;;4966230;28;20095;-52
2023/11/27 12:34:54;;;;;;;42.42;6.45;;;7.60;94.00;;;;;;4980410;28;20047;-52
2023/11/27 12:37:20;;;;;;;37.15;5.53;;;7.70;94.00;;;;;;4971018;28;20039;-52
2023/11/27 12:39:52;;;;;;;41.58;5.78;;;7.70;93.90;;;;;;4982503;28;20082;-52
2023/11/27 12:42:19;;;;;;;33.25;6.25;;;7.70;93.90;;;;;;4979279;28;20035;-52
2023/11/27 12:44:49;;;;;;;47.17;6.25;;;7.70;93.90;;;;;;4959932;28;20038;-52
2023/11/27 12:47:21;;;;;;;46.58;5.65;;;7.70;93.80;;;;;;4970601;28;20086;-52